sensor_id;sensor_type;location;lat;lon;timestamp;temperature;humidity
9425;DHT22;17139;52.140;11.636;2023-02-20T00:00:03;4.30;62.20
9425;DHT22;17139;52.140;11.636;2023-02-20T00:02:30;4.20;61.70
9425;DHT22;17139;52.140;11.636;2023-02-20T00:04:58;4.00;62.20
9425;DHT22;17139;52.140;11.636;2023-02-20T00:07:25;3.90;62.50
9425;DHT22;17139;52.140;11.636;2023-02-20T00:09:54;3.80;62.80
9425;DHT22;17139;52.140;11.636;2023-02-20T00:12:21;3.70;62.90
9425;DHT22;17139;52.140;11.636;2023-02-20T00:14:48;3.70;63.20
9425;DHT22;17139;52.140;11.636;2023-02-20T00:17:16;3.60;63.20
9425;DHT22;17139;52.140;11.636;2023-02-20T00:19:43;3.50;63.20
9425;DHT22;17139;52.140;11.636;2023-02-20T00:22:11;3.50;63.30
9425;DHT22;17139;52.140;11.636;2023-02-20T00:24:38;3.50;63.30
9425;DHT22;17139;52.140;11.636;2023-02-20T00:27:07;3.50;63.30
9425;DHT22;17139;52.140;11.636;2023-02-20T00:29:34;3.50;63.30
9425;DHT22;17139;52.140;11.636;2023-02-20T00:32:02;3.60;63.40
9425;DHT22;17139;52.140;11.636;2023-02-20T00:34:30;3.50;63.30
9425;DHT22;17139;52.140;11.636;2023-02-20T00:36:57;3.80;63.30
9425;DHT22;17139;52.140;11.636;2023-02-20T00:39:24;4.30;62.10
9425;DHT22;17139;52.140;11.636;2023-02-20T00:41:52;4.10;61.70
9425;DHT22;17139;52.140;11.636;2023-02-20T00:44:22;3.90;62.40
9425;DHT22;17139;52.140;11.636;2023-02-20T00:46:49;3.70;62.80
9425;DHT22;17139;52.140;11.636;2023-02-20T00:49:16;3.50;63.10
9425;DHT22;17139;52.140;11.636;2023-02-20T00:51:43;3.40;63.40
9425;DHT22;17139;52.140;11.636;2023-02-20T00:54:11;3.30;63.60
9425;DHT22;17139;52.140;11.636;2023-02-20T00:56:38;3.20;63.70
9425;DHT22;17139;52.140;11.636;2023-02-20T00:59:05;3.20;63.90
9425;DHT22;17139;52.140;11.636;2023-02-20T01:01:34;3.20;63.90
9425;DHT22;17139;52.140;11.636;2023-02-20T01:04:02;3.30;64.00
9425;DHT22;17139;52.140;11.636;2023-02-20T01:06:29;3.30;63.50
9425;DHT22;17139;52.140;11.636;2023-02-20T01:08:56;3.20;64.20
9425;DHT22;17139;52.140;11.636;2023-02-20T01:11:23;3.30;63.70
9425;DHT22;17139;52.140;11.636;2023-02-20T01:13:50;3.20;63.70
9425;DHT22;17139;52.140;11.636;2023-02-20T01:16:18;3.20;63.80
9425;DHT22;17139;52.140;11.636;2023-02-20T01:18:49;3.20;63.80
9425;DHT22;17139;52.140;11.636;2023-02-20T01:21:17;3.30;63.80
9425;DHT22;17139;52.140;11.636;2023-02-20T01:23:44;3.30;63.70
9425;DHT22;17139;52.140;11.636;2023-02-20T01:26:11;3.70;63.70
9425;DHT22;17139;52.140;11.636;2023-02-20T01:28:38;4.30;62.50
9425;DHT22;17139;52.140;11.636;2023-02-20T01:31:06;4.20;62.00
9425;DHT22;17139;52.140;11.636;2023-02-20T01:33:34;3.90;62.40
9425;DHT22;17139;52.140;11.636;2023-02-20T01:36:03;3.80;62.90
9425;DHT22;17139;52.140;11.636;2023-02-20T01:38:32;3.70;63.10
9425;DHT22;17139;52.140;11.636;2023-02-20T01:40:59;3.70;63.30
9425;DHT22;17139;52.140;11.636;2023-02-20T01:43:27;3.70;63.30
9425;DHT22;17139;52.140;11.636;2023-02-20T01:48:36;3.70;63.50
9425;DHT22;17139;52.140;11.636;2023-02-20T01:51:05;3.70;63.40
9425;DHT22;17139;52.140;11.636;2023-02-20T01:53:32;3.70;63.40
9425;DHT22;17139;52.140;11.636;2023-02-20T01:56:02;3.80;63.50
9425;DHT22;17139;52.140;11.636;2023-02-20T01:58:34;4.20;63.30
9425;DHT22;17139;52.140;11.636;2023-02-20T02:01:03;4.20;62.70
9425;DHT22;17139;52.140;11.636;2023-02-20T02:03:33;4.10;62.90
9425;DHT22;17139;52.140;11.636;2023-02-20T02:06:06;4.10;63.10
9425;DHT22;17139;52.140;11.636;2023-02-20T02:08:34;4.10;63.30
9425;DHT22;17139;52.140;11.636;2023-02-20T02:11:04;4.10;63.40
9425;DHT22;17139;52.140;11.636;2023-02-20T02:13:33;4.10;63.40
9425;DHT22;17139;52.140;11.636;2023-02-20T02:16:10;4.20;63.50
9425;DHT22;17139;52.140;11.636;2023-02-20T02:18:51;4.20;63.50
9425;DHT22;17139;52.140;11.636;2023-02-20T02:21:59;4.20;63.50
9425;DHT22;17139;52.140;11.636;2023-02-20T02:24:52;4.30;63.50
9425;DHT22;17139;52.140;11.636;2023-02-20T02:28:01;5.20;63.00
9425;DHT22;17139;52.140;11.636;2023-02-20T02:34:15;4.80;62.90
9425;DHT22;17139;52.140;11.636;2023-02-20T02:36:54;4.70;63.30
9425;DHT22;17139;52.140;11.636;2023-02-20T02:39:32;4.60;63.60
9425;DHT22;17139;52.140;11.636;2023-02-20T02:42:08;4.60;63.60
9425;DHT22;17139;52.140;11.636;2023-02-20T02:44:43;4.60;63.60
9425;DHT22;17139;52.140;11.636;2023-02-20T02:47:16;4.60;63.60
9425;DHT22;17139;52.140;11.636;2023-02-20T02:49:50;4.60;63.60
9425;DHT22;17139;52.140;11.636;2023-02-20T02:52:23;5.40;62.90
9425;DHT22;17139;52.140;11.636;2023-02-20T02:55:22;5.20;62.40
9425;DHT22;17139;52.140;11.636;2023-02-20T02:57:50;5.00;63.00
9425;DHT22;17139;52.140;11.636;2023-02-20T03:00:21;4.90;63.30
9425;DHT22;17139;52.140;11.636;2023-02-20T03:02:55;4.90;63.50
9425;DHT22;17139;52.140;11.636;2023-02-20T03:05:29;4.90;63.70
9425;DHT22;17139;52.140;11.636;2023-02-20T03:08:10;4.90;63.70
9425;DHT22;17139;52.140;11.636;2023-02-20T03:10:56;4.80;63.70
9425;DHT22;17139;52.140;11.636;2023-02-20T03:13:27;4.80;63.80
9425;DHT22;17139;52.140;11.636;2023-02-20T03:16:15;5.60;63.00
9425;DHT22;17139;52.140;11.636;2023-02-20T03:18:44;5.40;62.50
9425;DHT22;17139;52.140;11.636;2023-02-20T03:21:16;5.20;62.90
9425;DHT22;17139;52.140;11.636;2023-02-20T03:23:51;5.10;63.30
9425;DHT22;17139;52.140;11.636;2023-02-20T03:26:22;5.10;63.50
9425;DHT22;17139;52.140;11.636;2023-02-20T03:28:55;5.10;63.60
9425;DHT22;17139;52.140;11.636;2023-02-20T03:31:27;5.10;63.70
9425;DHT22;17139;52.140;11.636;2023-02-20T03:33:58;5.00;63.70
9425;DHT22;17139;52.140;11.636;2023-02-20T03:36:52;5.10;63.80
9425;DHT22;17139;52.140;11.636;2023-02-20T03:39:43;5.60;62.70
9425;DHT22;17139;52.140;11.636;2023-02-20T03:42:31;6.30;60.70
9425;DHT22;17139;52.140;11.636;2023-02-20T03:45:19;5.90;61.30
9425;DHT22;17139;52.140;11.636;2023-02-20T03:47:51;5.60;62.20
9425;DHT22;17139;52.140;11.636;2023-02-20T03:50:19;5.50;62.90
9425;DHT22;17139;52.140;11.636;2023-02-20T03:52:46;5.40;63.10
9425;DHT22;17139;52.140;11.636;2023-02-20T03:55:16;5.30;63.30
9425;DHT22;17139;52.140;11.636;2023-02-20T03:57:47;5.30;63.50
9425;DHT22;17139;52.140;11.636;2023-02-20T04:00:19;5.30;63.50
9425;DHT22;17139;52.140;11.636;2023-02-20T04:02:48;5.40;63.30
9425;DHT22;17139;52.140;11.636;2023-02-20T04:05:20;5.30;63.00
9425;DHT22;17139;52.140;11.636;2023-02-20T04:07:51;5.30;63.20
9425;DHT22;17139;52.140;11.636;2023-02-20T04:10:25;5.20;63.30
9425;DHT22;17139;52.140;11.636;2023-02-20T04:12:55;5.80;62.30
9425;DHT22;17139;52.140;11.636;2023-02-20T04:15:24;5.70;62.20
9425;DHT22;17139;52.140;11.636;2023-02-20T04:17:55;5.50;62.50
9425;DHT22;17139;52.140;11.636;2023-02-20T04:20:24;5.40;62.80
9425;DHT22;17139;52.140;11.636;2023-02-20T04:22:53;5.30;63.00
9425;DHT22;17139;52.140;11.636;2023-02-20T04:25:32;5.30;63.20
9425;DHT22;17139;52.140;11.636;2023-02-20T04:28:02;5.20;63.20
9425;DHT22;17139;52.140;11.636;2023-02-20T04:30:30;5.20;63.40
9425;DHT22;17139;52.140;11.636;2023-02-20T04:32:57;5.20;63.40
9425;DHT22;17139;52.140;11.636;2023-02-20T04:35:25;5.20;63.40
9425;DHT22;17139;52.140;11.636;2023-02-20T04:37:52;5.20;63.40
9425;DHT22;17139;52.140;11.636;2023-02-20T04:40:20;5.40;63.10
9425;DHT22;17139;52.140;11.636;2023-02-20T04:42:52;5.40;62.80
9425;DHT22;17139;52.140;11.636;2023-02-20T04:45:20;5.40;63.00
9425;DHT22;17139;52.140;11.636;2023-02-20T04:47:47;5.30;63.10
9425;DHT22;17139;52.140;11.636;2023-02-20T04:50:20;5.30;63.20
9425;DHT22;17139;52.140;11.636;2023-02-20T04:52:47;5.40;63.30
9425;DHT22;17139;52.140;11.636;2023-02-20T04:55:14;5.30;63.20
9425;DHT22;17139;52.140;11.636;2023-02-20T04:57:42;5.30;63.30
9425;DHT22;17139;52.140;11.636;2023-02-20T05:00:13;5.30;63.20
9425;DHT22;17139;52.140;11.636;2023-02-20T05:02:41;5.30;63.20
9425;DHT22;17139;52.140;11.636;2023-02-20T05:05:15;5.40;63.10
9425;DHT22;17139;52.140;11.636;2023-02-20T05:07:43;5.80;62.30
9425;DHT22;17139;52.140;11.636;2023-02-20T05:10:13;5.70;62.20
9425;DHT22;17139;52.140;11.636;2023-02-20T05:12:40;5.60;62.50
9425;DHT22;17139;52.140;11.636;2023-02-20T05:15:08;5.60;62.80
9425;DHT22;17139;52.140;11.636;2023-02-20T05:17:37;5.50;62.90
9425;DHT22;17139;52.140;11.636;2023-02-20T05:20:05;5.50;63.00
9425;DHT22;17139;52.140;11.636;2023-02-20T05:22:33;5.50;63.10
9425;DHT22;17139;52.140;11.636;2023-02-20T05:24:59;5.50;63.10
9425;DHT22;17139;52.140;11.636;2023-02-20T05:27:27;5.40;63.10
9425;DHT22;17139;52.140;11.636;2023-02-20T05:29:56;5.80;62.30
9425;DHT22;17139;52.140;11.636;2023-02-20T05:32:25;6.40;59.60
9425;DHT22;17139;52.140;11.636;2023-02-20T05:34:54;6.10;60.90
9425;DHT22;17139;52.140;11.636;2023-02-20T05:37:24;5.80;61.80
9425;DHT22;17139;52.140;11.636;2023-02-20T05:39:52;5.70;62.40
9425;DHT22;17139;52.140;11.636;2023-02-20T05:42:19;5.60;62.80
9425;DHT22;17139;52.140;11.636;2023-02-20T05:44:47;5.50;63.00
9425;DHT22;17139;52.140;11.636;2023-02-20T05:47:15;5.40;63.00
9425;DHT22;17139;52.140;11.636;2023-02-20T05:49:42;6.10;61.10
9425;DHT22;17139;52.140;11.636;2023-02-20T05:52:12;6.00;61.20
9425;DHT22;17139;52.140;11.636;2023-02-20T05:54:40;5.80;61.70
9425;DHT22;17139;52.140;11.636;2023-02-20T05:57:08;5.70;62.20
9425;DHT22;17139;52.140;11.636;2023-02-20T05:59:37;5.60;62.60
9425;DHT22;17139;52.140;11.636;2023-02-20T06:02:04;5.50;62.70
9425;DHT22;17139;52.140;11.636;2023-02-20T06:04:32;5.50;62.80
9425;DHT22;17139;52.140;11.636;2023-02-20T06:06:59;5.50;63.00
9425;DHT22;17139;52.140;11.636;2023-02-20T06:09:28;5.40;63.60
9425;DHT22;17139;52.140;11.636;2023-02-20T06:11:56;5.40;63.00
9425;DHT22;17139;52.140;11.636;2023-02-20T06:14:24;5.30;63.10
9425;DHT22;17139;52.140;11.636;2023-02-20T06:16:52;5.30;63.30
9425;DHT22;17139;52.140;11.636;2023-02-20T06:19:20;5.20;63.30
9425;DHT22;17139;52.140;11.636;2023-02-20T06:21:48;5.40;63.20
9425;DHT22;17139;52.140;11.636;2023-02-20T06:24:16;5.40;62.90
9425;DHT22;17139;52.140;11.636;2023-02-20T06:26:45;5.40;63.20
9425;DHT22;17139;52.140;11.636;2023-02-20T06:29:14;5.30;63.30
9425;DHT22;17139;52.140;11.636;2023-02-20T06:31:43;5.30;63.50
9425;DHT22;17139;52.140;11.636;2023-02-20T06:34:11;5.30;63.40
9425;DHT22;17139;52.140;11.636;2023-02-20T06:36:40;5.30;63.50
9425;DHT22;17139;52.140;11.636;2023-02-20T06:39:08;5.30;63.50
9425;DHT22;17139;52.140;11.636;2023-02-20T06:41:36;5.50;63.70
9425;DHT22;17139;52.140;11.636;2023-02-20T06:44:05;5.60;63.90
9425;DHT22;17139;52.140;11.636;2023-02-20T06:46:34;5.70;63.20
9425;DHT22;17139;52.140;11.636;2023-02-20T06:49:02;6.20;62.00
9425;DHT22;17139;52.140;11.636;2023-02-20T06:51:31;6.10;62.00
9425;DHT22;17139;52.140;11.636;2023-02-20T06:54:00;5.90;62.40
9425;DHT22;17139;52.140;11.636;2023-02-20T06:56:29;6.10;62.20
9425;DHT22;17139;52.140;11.636;2023-02-20T06:58:57;6.00;62.10
9425;DHT22;17139;52.140;11.636;2023-02-20T07:01:27;5.90;62.50
9425;DHT22;17139;52.140;11.636;2023-02-20T07:03:56;5.80;62.80
9425;DHT22;17139;52.140;11.636;2023-02-20T07:06:24;5.80;63.10
9425;DHT22;17139;52.140;11.636;2023-02-20T07:08:52;5.90;63.10
9425;DHT22;17139;52.140;11.636;2023-02-20T07:11:21;5.80;62.80
9425;DHT22;17139;52.140;11.636;2023-02-20T07:13:49;5.80;63.00
9425;DHT22;17139;52.140;11.636;2023-02-20T07:16:17;5.80;63.20
9425;DHT22;17139;52.140;11.636;2023-02-20T07:18:45;5.80;63.30
9425;DHT22;17139;52.140;11.636;2023-02-20T07:21:12;5.70;63.20
9425;DHT22;17139;52.140;11.636;2023-02-20T07:23:40;5.80;63.30
9425;DHT22;17139;52.140;11.636;2023-02-20T07:26:17;5.80;63.30
9425;DHT22;17139;52.140;11.636;2023-02-20T07:28:44;5.80;63.30
9425;DHT22;17139;52.140;11.636;2023-02-20T07:31:11;6.30;62.20
9425;DHT22;17139;52.140;11.636;2023-02-20T07:33:39;6.90;59.40
9425;DHT22;17139;52.140;11.636;2023-02-20T07:36:09;6.70;59.80
9425;DHT22;17139;52.140;11.636;2023-02-20T07:38:37;6.40;60.50
9425;DHT22;17139;52.140;11.636;2023-02-20T07:41:05;6.20;62.20
9425;DHT22;17139;52.140;11.636;2023-02-20T07:43:32;6.10;62.50
9425;DHT22;17139;52.140;11.636;2023-02-20T07:45:59;6.10;63.30
9425;DHT22;17139;52.140;11.636;2023-02-20T07:48:26;6.10;62.90
9425;DHT22;17139;52.140;11.636;2023-02-20T07:50:53;6.00;63.00
9425;DHT22;17139;52.140;11.636;2023-02-20T07:53:22;6.50;60.80
9425;DHT22;17139;52.140;11.636;2023-02-20T07:55:49;7.10;59.30
9425;DHT22;17139;52.140;11.636;2023-02-20T07:58:17;6.80;59.70
9425;DHT22;17139;52.140;11.636;2023-02-20T08:00:44;6.60;60.30
9425;DHT22;17139;52.140;11.636;2023-02-20T08:03:11;6.50;61.00
9425;DHT22;17139;52.140;11.636;2023-02-20T08:05:39;6.40;61.40
9425;DHT22;17139;52.140;11.636;2023-02-20T08:08:06;6.30;62.70
9425;DHT22;17139;52.140;11.636;2023-02-20T08:10:35;6.30;62.70
9425;DHT22;17139;52.140;11.636;2023-02-20T08:13:02;6.20;62.80
9425;DHT22;17139;52.140;11.636;2023-02-20T08:15:29;6.90;60.30
9425;DHT22;17139;52.140;11.636;2023-02-20T08:17:57;6.80;60.40
9425;DHT22;17139;52.140;11.636;2023-02-20T08:20:24;6.70;60.90
9425;DHT22;17139;52.140;11.636;2023-02-20T08:22:51;6.70;61.10
9425;DHT22;17139;52.140;11.636;2023-02-20T08:25:19;6.70;61.20
9425;DHT22;17139;52.140;11.636;2023-02-20T08:27:48;6.60;61.40
9425;DHT22;17139;52.140;11.636;2023-02-20T08:30:22;6.70;61.60
9425;DHT22;17139;52.140;11.636;2023-02-20T08:32:50;6.70;61.70
9425;DHT22;17139;52.140;11.636;2023-02-20T08:35:18;6.70;61.70
9425;DHT22;17139;52.140;11.636;2023-02-20T08:37:45;6.70;61.60
9425;DHT22;17139;52.140;11.636;2023-02-20T08:40:13;6.80;61.60
9425;DHT22;17139;52.140;11.636;2023-02-20T08:42:40;6.90;61.70
9425;DHT22;17139;52.140;11.636;2023-02-20T08:45:09;6.90;61.60
9425;DHT22;17139;52.140;11.636;2023-02-20T08:47:37;7.00;61.60
9425;DHT22;17139;52.140;11.636;2023-02-20T08:50:04;7.20;61.00
9425;DHT22;17139;52.140;11.636;2023-02-20T08:52:31;7.30;61.00
9425;DHT22;17139;52.140;11.636;2023-02-20T08:54:59;7.30;61.20
9425;DHT22;17139;52.140;11.636;2023-02-20T08:57:26;7.20;61.30
9425;DHT22;17139;52.140;11.636;2023-02-20T08:59:54;7.30;61.40
9425;DHT22;17139;52.140;11.636;2023-02-20T09:02:23;7.30;61.40
9425;DHT22;17139;52.140;11.636;2023-02-20T09:04:54;7.40;61.40
9425;DHT22;17139;52.140;11.636;2023-02-20T09:07:22;7.50;61.30
9425;DHT22;17139;52.140;11.636;2023-02-20T09:09:49;7.50;61.20
9425;DHT22;17139;52.140;11.636;2023-02-20T09:12:17;7.50;61.20
9425;DHT22;17139;52.140;11.636;2023-02-20T09:14:45;7.60;61.10
9425;DHT22;17139;52.140;11.636;2023-02-20T09:17:13;7.70;61.10
9425;DHT22;17139;52.140;11.636;2023-02-20T09:19:42;7.80;61.10
9425;DHT22;17139;52.140;11.636;2023-02-20T09:22:09;7.80;61.20
9425;DHT22;17139;52.140;11.636;2023-02-20T09:24:36;7.90;61.20
9425;DHT22;17139;52.140;11.636;2023-02-20T09:27:04;7.90;61.20
9425;DHT22;17139;52.140;11.636;2023-02-20T09:29:32;8.00;61.20
9425;DHT22;17139;52.140;11.636;2023-02-20T09:32:01;8.10;60.70
9425;DHT22;17139;52.140;11.636;2023-02-20T09:34:28;8.20;60.80
9425;DHT22;17139;52.140;11.636;2023-02-20T09:36:57;9.00;58.30
9425;DHT22;17139;52.140;11.636;2023-02-20T09:39:24;8.80;59.20
9425;DHT22;17139;52.140;11.636;2023-02-20T09:42:03;8.70;59.80
9425;DHT22;17139;52.140;11.636;2023-02-20T09:44:38;8.70;60.20
9425;DHT22;17139;52.140;11.636;2023-02-20T09:47:26;8.70;60.40
9425;DHT22;17139;52.140;11.636;2023-02-20T09:49:58;8.70;60.50
9425;DHT22;17139;52.140;11.636;2023-02-20T09:52:29;9.60;57.80
9425;DHT22;17139;52.140;11.636;2023-02-20T09:55:01;9.30;58.60
9425;DHT22;17139;52.140;11.636;2023-02-20T09:57:29;9.20;59.50
9425;DHT22;17139;52.140;11.636;2023-02-20T10:00:03;9.80;57.00
9425;DHT22;17139;52.140;11.636;2023-02-20T10:02:33;9.60;58.30
9425;DHT22;17139;52.140;11.636;2023-02-20T10:05:06;9.50;59.20
9425;DHT22;17139;52.140;11.636;2023-02-20T10:07:39;9.40;59.50
9425;DHT22;17139;52.140;11.636;2023-02-20T10:10:17;9.40;59.80
9425;DHT22;17139;52.140;11.636;2023-02-20T10:12:55;9.40;59.80
9425;DHT22;17139;52.140;11.636;2023-02-20T10:15:30;9.40;59.90
9425;DHT22;17139;52.140;11.636;2023-02-20T10:18:08;9.30;59.90
9425;DHT22;17139;52.140;11.636;2023-02-20T10:20:48;9.80;58.40
9425;DHT22;17139;52.140;11.636;2023-02-20T10:23:29;10.50;56.40
9425;DHT22;17139;52.140;11.636;2023-02-20T10:26:01;10.00;57.90
9425;DHT22;17139;52.140;11.636;2023-02-20T10:28:30;9.70;59.00
9425;DHT22;17139;52.140;11.636;2023-02-20T10:30:59;9.50;59.50
9425;DHT22;17139;52.140;11.636;2023-02-20T10:33:32;9.40;59.80
9425;DHT22;17139;52.140;11.636;2023-02-20T10:36:03;9.40;59.80
9425;DHT22;17139;52.140;11.636;2023-02-20T10:38:38;9.40;60.10
9425;DHT22;17139;52.140;11.636;2023-02-20T10:41:13;9.50;60.10
9425;DHT22;17139;52.140;11.636;2023-02-20T10:43:49;9.80;59.20
9425;DHT22;17139;52.140;11.636;2023-02-20T10:46:21;9.70;59.50
9425;DHT22;17139;52.140;11.636;2023-02-20T10:48:50;9.60;59.90
9425;DHT22;17139;52.140;11.636;2023-02-20T10:51:26;9.60;60.00
9425;DHT22;17139;52.140;11.636;2023-02-20T10:53:58;9.60;60.00
9425;DHT22;17139;52.140;11.636;2023-02-20T10:56:32;9.50;60.20
9425;DHT22;17139;52.140;11.636;2023-02-20T10:59:06;9.50;60.50
9425;DHT22;17139;52.140;11.636;2023-02-20T11:01:35;9.50;60.60
9425;DHT22;17139;52.140;11.636;2023-02-20T11:04:08;9.60;60.20
9425;DHT22;17139;52.140;11.636;2023-02-20T11:06:39;9.70;60.20
9425;DHT22;17139;52.140;11.636;2023-02-20T11:09:10;9.70;60.40
9425;DHT22;17139;52.140;11.636;2023-02-20T11:11:40;9.60;60.40
9425;DHT22;17139;52.140;11.636;2023-02-20T11:14:12;9.60;60.60
9425;DHT22;17139;52.140;11.636;2023-02-20T11:16:44;9.50;60.70
9425;DHT22;17139;52.140;11.636;2023-02-20T11:19:18;9.50;60.70
9425;DHT22;17139;52.140;11.636;2023-02-20T11:21:47;9.40;60.80
9425;DHT22;17139;52.140;11.636;2023-02-20T11:24:31;9.90;59.50
9425;DHT22;17139;52.140;11.636;2023-02-20T11:27:05;10.50;57.90
9425;DHT22;17139;52.140;11.636;2023-02-20T11:29:36;10.00;58.90
9425;DHT22;17139;52.140;11.636;2023-02-20T11:32:25;9.80;59.80
9425;DHT22;17139;52.140;11.636;2023-02-20T11:35:20;9.70;60.90
9425;DHT22;17139;52.140;11.636;2023-02-20T11:37:49;9.70;60.60
9425;DHT22;17139;52.140;11.636;2023-02-20T11:40:24;9.50;60.70
9425;DHT22;17139;52.140;11.636;2023-02-20T11:42:52;9.40;60.70
9425;DHT22;17139;52.140;11.636;2023-02-20T11:45:24;10.20;58.80
9425;DHT22;17139;52.140;11.636;2023-02-20T11:48:07;10.10;59.50
9425;DHT22;17139;52.140;11.636;2023-02-20T11:50:40;9.90;59.90
9425;DHT22;17139;52.140;11.636;2023-02-20T11:53:17;10.30;59.30
9425;DHT22;17139;52.140;11.636;2023-02-20T11:55:46;10.10;59.50
9425;DHT22;17139;52.140;11.636;2023-02-20T11:58:21;10.00;60.30
9425;DHT22;17139;52.140;11.636;2023-02-20T12:00:51;9.90;60.30
9425;DHT22;17139;52.140;11.636;2023-02-20T12:03:21;9.90;60.60
9425;DHT22;17139;52.140;11.636;2023-02-20T12:05:49;9.90;61.30
9425;DHT22;17139;52.140;11.636;2023-02-20T12:08:39;10.00;60.80
9425;DHT22;17139;52.140;11.636;2023-02-20T12:11:13;10.00;60.50
9425;DHT22;17139;52.140;11.636;2023-02-20T12:13:43;10.00;60.90
9425;DHT22;17139;52.140;11.636;2023-02-20T12:16:25;9.80;60.80
9425;DHT22;17139;52.140;11.636;2023-02-20T12:19:00;10.00;60.40
9425;DHT22;17139;52.140;11.636;2023-02-20T12:21:39;9.90;60.60
9425;DHT22;17139;52.140;11.636;2023-02-20T12:24:29;9.80;61.00
9425;DHT22;17139;52.140;11.636;2023-02-20T12:27:14;9.70;61.20
9425;DHT22;17139;52.140;11.636;2023-02-20T12:29:48;9.60;61.20
9425;DHT22;17139;52.140;11.636;2023-02-20T12:32:32;9.50;61.30
9425;DHT22;17139;52.140;11.636;2023-02-20T12:35:23;9.50;61.50
9425;DHT22;17139;52.140;11.636;2023-02-20T12:38:00;9.50;61.60
9425;DHT22;17139;52.140;11.636;2023-02-20T12:40:38;9.40;61.70
9425;DHT22;17139;52.140;11.636;2023-02-20T12:43:17;9.80;60.90
9425;DHT22;17139;52.140;11.636;2023-02-20T12:45:51;9.70;61.00
9425;DHT22;17139;52.140;11.636;2023-02-20T12:48:28;9.60;61.20
9425;DHT22;17139;52.140;11.636;2023-02-20T12:51:03;9.50;61.40
9425;DHT22;17139;52.140;11.636;2023-02-20T12:53:52;9.50;61.60
9425;DHT22;17139;52.140;11.636;2023-02-20T12:56:31;9.40;61.80
9425;DHT22;17139;52.140;11.636;2023-02-20T12:59:15;9.40;62.10
9425;DHT22;17139;52.140;11.636;2023-02-20T13:01:49;9.30;62.80
9425;DHT22;17139;52.140;11.636;2023-02-20T13:04:23;9.70;61.10
9425;DHT22;17139;52.140;11.636;2023-02-20T13:06:58;10.20;59.80
9425;DHT22;17139;52.140;11.636;2023-02-20T13:09:32;9.80;60.20
9425;DHT22;17139;52.140;11.636;2023-02-20T13:12:03;9.50;61.10
9425;DHT22;17139;52.140;11.636;2023-02-20T13:14:41;9.40;61.70
9425;DHT22;17139;52.140;11.636;2023-02-20T13:17:23;9.30;62.00
9425;DHT22;17139;52.140;11.636;2023-02-20T13:19:57;9.20;62.10
9425;DHT22;17139;52.140;11.636;2023-02-20T13:22:26;9.10;62.20
9425;DHT22;17139;52.140;11.636;2023-02-20T13:24:53;9.20;62.30
9425;DHT22;17139;52.140;11.636;2023-02-20T13:27:28;9.90;60.70
9425;DHT22;17139;52.140;11.636;2023-02-20T13:29:58;9.70;60.80
9425;DHT22;17139;52.140;11.636;2023-02-20T13:32:27;9.40;61.40
9425;DHT22;17139;52.140;11.636;2023-02-20T13:35:33;9.30;61.80
9425;DHT22;17139;52.140;11.636;2023-02-20T13:38:09;9.30;61.80
9425;DHT22;17139;52.140;11.636;2023-02-20T13:40:41;9.20;62.10
9425;DHT22;17139;52.140;11.636;2023-02-20T13:43:28;9.20;62.10
9425;DHT22;17139;52.140;11.636;2023-02-20T13:46:15;9.30;62.10
9425;DHT22;17139;52.140;11.636;2023-02-20T13:48:49;9.30;62.00
9425;DHT22;17139;52.140;11.636;2023-02-20T13:51:34;10.10;60.30
9425;DHT22;17139;52.140;11.636;2023-02-20T13:54:24;9.80;60.20
9425;DHT22;17139;52.140;11.636;2023-02-20T13:56:54;10.50;59.00
9425;DHT22;17139;52.140;11.636;2023-02-20T13:59:24;10.00;59.80
9425;DHT22;17139;52.140;11.636;2023-02-20T14:02:01;9.70;60.80
9425;DHT22;17139;52.140;11.636;2023-02-20T14:04:29;9.90;60.70
9425;DHT22;17139;52.140;11.636;2023-02-20T14:06:57;9.70;60.80
9425;DHT22;17139;52.140;11.636;2023-02-20T14:09:26;9.50;61.20
9425;DHT22;17139;52.140;11.636;2023-02-20T14:12:03;9.40;61.70
9425;DHT22;17139;52.140;11.636;2023-02-20T14:14:36;9.30;61.90
9425;DHT22;17139;52.140;11.636;2023-02-20T14:17:07;9.90;60.30
9425;DHT22;17139;52.140;11.636;2023-02-20T14:19:40;9.70;60.60
9425;DHT22;17139;52.140;11.636;2023-02-20T14:22:22;9.40;61.10
9425;DHT22;17139;52.140;11.636;2023-02-20T14:25:20;9.20;61.70
9425;DHT22;17139;52.140;11.636;2023-02-20T14:27:49;9.20;62.10
9425;DHT22;17139;52.140;11.636;2023-02-20T14:30:19;9.00;62.20
9425;DHT22;17139;52.140;11.636;2023-02-20T14:32:50;9.00;62.30
9425;DHT22;17139;52.140;11.636;2023-02-20T14:35:43;8.90;62.30
9425;DHT22;17139;52.140;11.636;2023-02-20T14:38:22;8.90;62.30
9425;DHT22;17139;52.140;11.636;2023-02-20T14:40:52;9.20;61.80
9425;DHT22;17139;52.140;11.636;2023-02-20T14:43:20;9.40;61.00
9425;DHT22;17139;52.140;11.636;2023-02-20T14:45:58;9.20;61.10
9425;DHT22;17139;52.140;11.636;2023-02-20T14:48:28;9.00;61.70
9425;DHT22;17139;52.140;11.636;2023-02-20T14:51:13;8.90;62.10
9425;DHT22;17139;52.140;11.636;2023-02-20T14:53:41;8.80;62.30
9425;DHT22;17139;52.140;11.636;2023-02-20T14:56:14;8.70;62.40
9425;DHT22;17139;52.140;11.636;2023-02-20T14:58:42;8.70;62.40
9425;DHT22;17139;52.140;11.636;2023-02-20T15:01:17;9.50;60.90
9425;DHT22;17139;52.140;11.636;2023-02-20T15:03:57;9.30;61.00
9425;DHT22;17139;52.140;11.636;2023-02-20T15:06:25;9.00;61.60
9425;DHT22;17139;52.140;11.636;2023-02-20T15:08:57;8.80;62.10
9425;DHT22;17139;52.140;11.636;2023-02-20T15:11:24;8.70;62.40
9425;DHT22;17139;52.140;11.636;2023-02-20T15:13:52;8.60;62.40
9425;DHT22;17139;52.140;11.636;2023-02-20T15:16:22;8.60;62.60
9425;DHT22;17139;52.140;11.636;2023-02-20T15:18:50;8.60;62.60
9425;DHT22;17139;52.140;11.636;2023-02-20T15:21:32;9.40;61.00
9425;DHT22;17139;52.140;11.636;2023-02-20T15:24:35;9.20;61.00
9425;DHT22;17139;52.140;11.636;2023-02-20T15:27:11;8.90;61.60
9425;DHT22;17139;52.140;11.636;2023-02-20T15:29:38;8.70;62.30
9425;DHT22;17139;52.140;11.636;2023-02-20T15:32:14;8.60;62.40
9425;DHT22;17139;52.140;11.636;2023-02-20T15:34:43;8.50;62.50
9425;DHT22;17139;52.140;11.636;2023-02-20T15:37:19;8.40;62.60
9425;DHT22;17139;52.140;11.636;2023-02-20T15:39:46;8.80;62.50
9425;DHT22;17139;52.140;11.636;2023-02-20T15:42:15;8.60;62.10
9425;DHT22;17139;52.140;11.636;2023-02-20T15:44:43;8.50;62.20
9425;DHT22;17139;52.140;11.636;2023-02-20T15:47:10;8.60;62.50
9425;DHT22;17139;52.140;11.636;2023-02-20T15:49:37;8.60;62.30
9425;DHT22;17139;52.140;11.636;2023-02-20T15:52:06;8.50;62.50
9425;DHT22;17139;52.140;11.636;2023-02-20T15:54:37;8.40;62.60
9425;DHT22;17139;52.140;11.636;2023-02-20T15:57:12;8.40;62.80
9425;DHT22;17139;52.140;11.636;2023-02-20T15:59:41;8.40;62.90
9425;DHT22;17139;52.140;11.636;2023-02-20T16:02:12;8.30;63.60
9425;DHT22;17139;52.140;11.636;2023-02-20T16:04:44;8.30;63.00
9425;DHT22;17139;52.140;11.636;2023-02-20T16:07:11;8.30;63.00
9425;DHT22;17139;52.140;11.636;2023-02-20T16:09:39;8.30;63.10
9425;DHT22;17139;52.140;11.636;2023-02-20T16:12:12;8.50;62.50
9425;DHT22;17139;52.140;11.636;2023-02-20T16:14:40;8.50;62.30
9425;DHT22;17139;52.140;11.636;2023-02-20T16:17:11;9.00;61.80
9425;DHT22;17139;52.140;11.636;2023-02-20T16:19:39;9.00;61.60